Terminal Aerodrome Forecast
Issued by NWS Charleston, WV

Current Version | Previous Version | Text Only | Print | Product List | Glossary Off
Versions: 1 2 3 4 5 6 7 8 9 10 11 12 13 14 15 16 17 18 19 20 21 22 23 24 25 26 27

000
FTUS41 KRLX 191700
TAFCRW
TAF
KCRW 191721Z 1918/2018 VRB03KT P6SM BKN040
     FM191900 VRB03KT P6SM SCT040
     FM192000 00000KT P6SM SKC
     FM201700 22004KT P6SM BKN110=

USA.gov is the U.S. government's official web portal to all federal, state and local government web resources and services.